createdAt,value
2022-10-22T00:01:05.840Z,100.00
2022-10-22T00:03:32.884Z,100.00
2022-10-22T00:05:59.755Z,100.00
2022-10-22T00:08:26.561Z,100.00
2022-10-22T00:10:53.572Z,100.00
2022-10-22T00:13:20.611Z,100.00
2022-10-22T00:15:47.490Z,100.00
2022-10-22T00:18:14.239Z,100.00
2022-10-22T00:20:41.261Z,100.00
2022-10-22T00:23:08.007Z,100.00
2022-10-22T00:25:36.202Z,100.00
2022-10-22T00:28:03.750Z,100.00
2022-10-22T00:30:30.571Z,100.00
2022-10-22T00:32:57.308Z,100.00
2022-10-22T00:35:24.062Z,100.00
2022-10-22T00:37:50.808Z,100.00
2022-10-22T00:40:17.628Z,100.00
2022-10-22T00:42:44.315Z,100.00
2022-10-22T00:45:10.987Z,100.00
2022-10-22T00:47:48.831Z,99.52
2022-10-22T00:50:24.680Z,99.10
2022-10-22T00:52:51.794Z,99.28
2022-10-22T00:55:20.762Z,99.07
2022-10-22T00:57:48.503Z,99.09
2022-10-22T01:00:15.927Z,98.95
2022-10-22T01:02:43.028Z,99.17
2022-10-22T01:05:10.496Z,99.46
2022-10-22T01:07:47.331Z,100.00
2022-10-22T01:10:20.017Z,100.00
2022-10-22T01:12:46.744Z,100.00
2022-10-22T01:15:22.223Z,100.00
2022-10-22T01:18:09.495Z,100.00
2022-10-22T01:20:39.197Z,100.00
2022-10-22T01:23:22.014Z,100.00
2022-10-22T01:26:28.226Z,100.00
2022-10-22T01:29:05.552Z,100.00
2022-10-22T01:31:38.140Z,100.00
2022-10-22T01:34:08.399Z,100.00
2022-10-22T01:36:37.509Z,100.00
2022-10-22T01:39:06.358Z,100.00
2022-10-22T01:41:35.217Z,100.00
2022-10-22T01:44:02.024Z,100.00
2022-10-22T01:46:29.692Z,100.00
2022-10-22T01:49:02.289Z,100.00
2022-10-22T01:51:47.067Z,100.00
2022-10-22T01:54:26.654Z,100.00
2022-10-22T01:57:10.452Z,100.00
2022-10-22T02:00:00.245Z,100.00
2022-10-22T02:02:36.003Z,100.00
2022-10-22T02:05:13.046Z,100.00
2022-10-22T02:07:46.920Z,100.00
2022-10-22T02:10:14.481Z,100.00
2022-10-22T02:12:43.276Z,100.00
2022-10-22T02:15:12.439Z,100.00
2022-10-22T02:17:42.536Z,100.00
2022-10-22T02:20:22.268Z,99.92
2022-10-22T02:22:49.098Z,99.98
2022-10-22T02:25:17.004Z,99.99
2022-10-22T02:27:49.488Z,99.93
2022-10-22T02:30:21.486Z,99.67
2022-10-22T02:33:07.025Z,100.00
2022-10-22T02:35:35.419Z,99.82
2022-10-22T02:38:03.398Z,100.00
2022-10-22T02:40:32.009Z,100.00
2022-10-22T02:42:59.190Z,100.00
2022-10-22T02:45:26.073Z,100.00
2022-10-22T02:47:52.951Z,100.00
2022-10-22T02:50:19.679Z,100.00
2022-10-22T02:52:46.404Z,100.00
2022-10-22T02:55:13.468Z,100.00
2022-10-22T02:57:40.484Z,100.00
2022-10-22T03:00:09.456Z,100.00
2022-10-22T03:02:36.380Z,100.00
2022-10-22T03:05:04.449Z,100.00
2022-10-22T03:07:31.291Z,100.00
2022-10-22T03:09:57.985Z,100.00
2022-10-22T03:12:24.714Z,100.00
2022-10-22T03:14:51.442Z,100.00
2022-10-22T03:17:19.093Z,100.00
2022-10-22T03:19:45.781Z,100.00
2022-10-22T03:22:24.982Z,100.00
2022-10-22T03:24:58.414Z,100.00
2022-10-22T03:27:28.402Z,100.00
2022-10-22T03:29:56.885Z,100.00
2022-10-22T03:32:23.597Z,100.00
2022-10-22T03:34:50.424Z,100.00
2022-10-22T03:37:17.466Z,100.00
2022-10-22T03:39:44.485Z,100.00
2022-10-22T03:42:13.312Z,100.00
2022-10-22T03:44:40.823Z,100.00
2022-10-22T03:47:07.882Z,100.00
2022-10-22T03:49:34.699Z,100.00
2022-10-22T03:52:12.901Z,100.00
2022-10-22T03:54:40.334Z,97.52
2022-10-22T03:57:07.386Z,96.11
2022-10-22T03:59:42.681Z,97.32
2022-10-22T04:02:10.289Z,98.73
2022-10-22T04:04:37.648Z,100.00
2022-10-22T04:07:05.858Z,100.00
2022-10-22T04:09:33.614Z,99.84
2022-10-22T04:12:01.048Z,99.54
2022-10-22T04:14:27.904Z,98.15
2022-10-22T04:16:54.794Z,98.06
2022-10-22T04:19:21.617Z,97.88
2022-10-22T04:21:48.396Z,97.45
2022-10-22T04:24:15.384Z,97.79
2022-10-22T04:26:42.373Z,97.79
2022-10-22T04:29:13.389Z,97.15
2022-10-22T04:31:43.306Z,97.65
2022-10-22T04:34:10.173Z,99.30
2022-10-22T04:36:36.901Z,100.00
2022-10-22T04:39:04.856Z,100.00
2022-10-22T04:41:39.199Z,100.00
2022-10-22T04:44:09.885Z,100.00
2022-10-22T04:46:40.253Z,100.00
2022-10-22T04:49:07.019Z,100.00
2022-10-22T04:51:33.803Z,100.00
2022-10-22T04:54:00.619Z,99.92
2022-10-22T04:56:30.231Z,100.00
2022-10-22T04:59:02.738Z,99.07
2022-10-22T05:01:32.523Z,98.55
2022-10-22T05:04:02.174Z,97.39
2022-10-22T05:06:30.553Z,97.68
2022-10-22T05:09:00.205Z,96.29
2022-10-22T05:11:33.992Z,96.92
2022-10-22T05:14:03.046Z,96.35
2022-10-22T05:16:33.914Z,97.65
2022-10-22T05:19:02.052Z,98.34
2022-10-22T05:21:29.064Z,97.60
2022-10-22T05:23:57.398Z,97.06
2022-10-22T05:26:25.165Z,96.02
2022-10-22T05:28:52.805Z,100.00
2022-10-22T05:31:20.041Z,100.00
2022-10-22T05:33:47.599Z,96.14
2022-10-22T05:36:19.100Z,94.85
2022-10-22T05:38:46.308Z,94.33
2022-10-22T05:41:16.471Z,95.31
2022-10-22T05:43:43.519Z,97.37
2022-10-22T05:46:12.956Z,100.00
2022-10-22T05:48:40.264Z,97.40
2022-10-22T05:51:10.173Z,96.10
2022-10-22T05:53:39.178Z,96.77
2022-10-22T05:56:16.840Z,99.01
2022-10-22T05:58:45.519Z,93.27
2022-10-22T06:01:24.498Z,89.17
2022-10-22T06:03:54.894Z,87.42
2022-10-22T06:06:24.232Z,88.07
2022-10-22T06:08:52.921Z,79.51
2022-10-22T06:11:21.132Z,78.73
2022-10-22T06:13:49.582Z,77.52
2022-10-22T06:16:16.609Z,76.78
2022-10-22T06:18:43.360Z,75.05
2022-10-22T06:21:16.057Z,76.08
2022-10-22T06:23:43.250Z,75.35
2022-10-22T06:26:11.000Z,76.14
2022-10-22T06:28:38.549Z,76.96
2022-10-22T06:31:05.628Z,76.96
2022-10-22T06:33:34.343Z,76.25
2022-10-22T06:36:10.206Z,78.12
2022-10-22T06:38:36.928Z,77.65
2022-10-22T06:41:09.967Z,78.02
2022-10-22T06:43:37.045Z,77.54
2022-10-22T06:46:07.259Z,77.76
2022-10-22T06:48:36.087Z,76.80
2022-10-22T08:01:42.654Z,68.36
2022-10-22T08:04:09.966Z,68.69
2022-10-22T08:06:37.056Z,68.43
2022-10-22T08:09:04.097Z,68.72
2022-10-22T08:11:33.526Z,67.85
2022-10-22T08:14:00.750Z,68.16
2022-10-22T08:16:27.596Z,67.92
2022-10-22T08:18:54.401Z,66.95
2022-10-22T08:21:21.167Z,67.84
2022-10-22T08:23:47.911Z,68.09
2022-10-22T08:26:14.691Z,68.01
2022-10-22T08:28:41.681Z,67.84
2022-10-22T08:31:08.896Z,69.02
2022-10-22T08:33:35.809Z,69.53
2022-10-22T08:36:02.814Z,70.24
2022-10-22T08:38:31.415Z,71.39
2022-10-22T08:41:07.720Z,71.80
2022-10-22T08:43:59.102Z,73.38
2022-10-22T08:46:25.838Z,72.41
2022-10-22T08:49:00.435Z,71.61
2022-10-22T08:51:34.374Z,70.91
2022-10-22T08:54:19.483Z,70.84
2022-10-22T08:56:57.299Z,69.70
2022-10-22T08:59:30.424Z,69.82
2022-10-22T09:01:57.352Z,70.16
2022-10-22T09:04:30.944Z,69.58
2022-10-22T09:06:59.598Z,69.56
2022-10-22T09:09:31.823Z,69.70
2022-10-22T09:12:00.710Z,68.94
2022-10-22T09:14:27.770Z,67.92
2022-10-22T09:17:00.217Z,67.97
2022-10-22T09:19:26.925Z,65.49
2022-10-22T09:22:27.346Z,64.53
2022-10-22T09:25:21.338Z,63.18
2022-10-22T09:27:49.277Z,61.92
2022-10-22T09:30:18.695Z,62.71
2022-10-22T09:32:45.771Z,63.32
2022-10-22T09:35:15.199Z,62.87
2022-10-22T09:37:50.177Z,61.37
2022-10-22T09:40:18.336Z,60.34
2022-10-22T09:42:46.839Z,60.92
2022-10-22T09:45:21.060Z,59.87
2022-10-22T09:48:03.984Z,61.04
2022-10-22T09:50:47.541Z,61.21
2022-10-22T09:53:17.274Z,61.30
2022-10-22T09:55:49.125Z,60.65
2022-10-22T09:58:19.528Z,61.25
2022-10-22T10:00:51.451Z,60.05
2022-10-22T10:03:21.736Z,61.65
2022-10-22T10:05:53.459Z,61.39
2022-10-22T10:08:20.896Z,62.10
2022-10-22T10:10:54.653Z,61.40
2022-10-22T10:13:21.286Z,60.50
2022-10-22T10:16:12.080Z,59.96
2022-10-22T10:18:58.925Z,58.66
2022-10-22T10:21:57.284Z,58.25
2022-10-22T10:24:39.011Z,59.22
2022-10-22T10:27:15.453Z,58.35
2022-10-22T10:29:58.281Z,58.14
2022-10-22T10:32:37.298Z,58.97
2022-10-22T10:35:25.596Z,59.26
2022-10-22T10:38:14.002Z,59.70
2022-10-22T10:40:55.598Z,58.51
2022-10-22T10:43:49.986Z,59.68
2022-10-22T10:46:39.862Z,60.57
2022-10-22T10:49:23.265Z,60.90
2022-10-22T10:52:20.483Z,59.97
2022-10-22T10:55:06.950Z,60.53
2022-10-22T10:57:44.464Z,60.91
2022-10-22T11:00:20.832Z,60.23
2022-10-22T11:03:09.129Z,60.88
2022-10-22T11:05:44.322Z,61.01
2022-10-22T11:08:25.297Z,60.26
2022-10-22T11:10:57.835Z,59.52
2022-10-22T11:13:40.351Z,58.91
2022-10-22T11:16:25.093Z,58.11
2022-10-22T11:19:22.731Z,59.14
2022-10-22T11:21:52.840Z,58.47
2022-10-22T11:25:03.109Z,57.01
2022-10-22T11:27:48.761Z,56.63
2022-10-22T11:30:24.648Z,56.94
2022-10-22T11:32:58.177Z,56.67
2022-10-22T11:35:28.762Z,56.03
2022-10-22T11:37:57.412Z,56.05
2022-10-22T11:41:01.394Z,55.94
2022-10-22T11:43:32.726Z,55.12
2022-10-22T11:46:27.389Z,55.73
2022-10-22T11:49:15.349Z,56.04
2022-10-22T11:51:44.012Z,55.78
2022-10-22T11:54:32.654Z,56.21
2022-10-22T11:57:14.561Z,55.63
2022-10-22T11:59:47.462Z,56.01
2022-10-22T12:02:23.125Z,56.69
2022-10-22T12:04:50.135Z,56.90
2022-10-22T12:07:35.814Z,55.22
2022-10-22T12:10:18.475Z,54.95
2022-10-22T12:12:55.768Z,53.85
2022-10-22T12:15:29.033Z,53.76
2022-10-22T12:18:05.538Z,54.43
2022-10-22T12:20:32.454Z,54.17
2022-10-22T12:23:00.126Z,54.71
2022-10-22T12:25:35.596Z,54.82
2022-10-22T12:28:02.865Z,53.99
2022-10-22T12:30:34.705Z,54.02
2022-10-22T12:33:04.486Z,55.12
2022-10-22T12:35:43.182Z,55.51
2022-10-22T12:38:18.430Z,56.54
2022-10-22T12:40:48.400Z,57.55
2022-10-22T12:43:28.985Z,58.46
2022-10-22T12:45:57.813Z,59.29
2022-10-22T12:48:34.538Z,60.30
2022-10-22T12:51:04.118Z,60.15
2022-10-22T12:53:35.034Z,61.42
2022-10-22T12:56:25.336Z,61.27
2022-10-22T12:58:57.159Z,61.08
2022-10-22T13:01:27.985Z,61.63
2022-10-22T13:04:13.348Z,61.94
2022-10-22T13:06:45.761Z,62.49
2022-10-22T13:09:26.942Z,61.96
2022-10-22T13:12:02.342Z,61.61
2022-10-22T13:14:32.116Z,61.13
2022-10-22T13:17:15.175Z,60.45
2022-10-22T13:19:48.061Z,60.82
2022-10-22T13:22:35.527Z,61.47
2022-10-22T13:25:19.360Z,61.63
2022-10-22T13:27:48.358Z,61.77
2022-10-22T13:30:20.345Z,62.51
2022-10-22T13:32:57.611Z,62.62
2022-10-22T13:35:27.544Z,62.93
2022-10-22T13:37:54.467Z,62.80
2022-10-22T13:40:21.668Z,62.75
2022-10-22T13:42:48.513Z,62.95
2022-10-22T13:45:16.434Z,63.07
2022-10-22T13:47:48.565Z,62.97
2022-10-22T13:50:19.019Z,63.62
2022-10-22T13:52:54.691Z,63.41
2022-10-22T13:55:25.409Z,64.02
2022-10-22T13:57:55.667Z,63.61
2022-10-22T14:00:26.135Z,63.75
2022-10-22T14:02:55.531Z,63.71
2022-10-22T14:05:22.392Z,63.97
2022-10-22T14:07:49.629Z,64.26
2022-10-22T14:10:17.956Z,64.33
2022-10-22T14:12:49.285Z,64.28
2022-10-22T14:15:19.853Z,64.38
2022-10-22T14:17:52.146Z,64.35
2022-10-22T14:20:21.994Z,63.72
2022-10-22T14:22:50.136Z,63.84
2022-10-22T14:25:22.138Z,63.70
2022-10-22T14:27:48.980Z,63.35
2022-10-22T14:30:24.539Z,63.25
2022-10-22T14:32:52.005Z,63.29
2022-10-22T14:35:22.591Z,63.56
2022-10-22T14:37:49.880Z,64.40
2022-10-22T14:40:19.324Z,64.62
2022-10-22T14:42:48.094Z,65.07
2022-10-22T14:45:21.543Z,65.39
2022-10-22T14:47:50.136Z,65.83
2022-10-22T14:50:18.398Z,66.15
2022-10-22T14:52:45.488Z,66.67
2022-10-22T14:55:14.219Z,67.21
2022-10-22T14:57:41.689Z,67.95
2022-10-22T15:00:14.797Z,68.69
2022-10-22T15:02:41.974Z,69.36
2022-10-22T15:05:09.523Z,73.09
2022-10-22T15:07:36.743Z,76.26
2022-10-22T15:10:05.014Z,77.07
2022-10-22T15:12:32.307Z,78.47
2022-10-22T15:14:59.257Z,79.18
2022-10-22T15:17:26.125Z,79.62
2022-10-22T15:19:53.362Z,80.70
2022-10-22T15:22:20.830Z,81.62
2022-10-22T15:24:49.167Z,82.75
2022-10-22T15:27:16.284Z,83.13
2022-10-22T15:29:43.364Z,82.87
2022-10-22T15:32:13.039Z,82.13
2022-10-22T15:34:40.487Z,82.27
2022-10-22T15:37:10.370Z,81.82
2022-10-22T15:39:40.813Z,82.20
2022-10-22T15:58:38.310Z,84.31
2022-10-22T16:01:10.858Z,85.15
2022-10-22T16:03:38.195Z,86.00
2022-10-22T16:06:06.077Z,87.20
2022-10-22T16:08:33.560Z,88.28
2022-10-22T16:11:00.856Z,89.63
2022-10-22T16:13:28.034Z,89.89
2022-10-22T16:15:54.987Z,90.71
2022-10-22T16:18:23.787Z,92.46
2022-10-22T16:20:50.710Z,92.97
2022-10-22T16:23:19.127Z,93.70
2022-10-22T16:25:46.786Z,94.72
2022-10-22T16:28:14.352Z,94.62
2022-10-22T16:30:41.876Z,95.29
2022-10-22T16:33:10.139Z,95.23
2022-10-22T16:35:41.442Z,94.67
2022-10-22T16:38:10.604Z,94.46
2022-10-22T16:40:37.667Z,93.88
2022-10-22T16:43:04.719Z,93.27
2022-10-22T16:45:31.700Z,92.88
2022-10-22T16:47:58.624Z,92.63
2022-10-22T16:50:25.485Z,92.19
2022-10-22T16:52:52.689Z,90.67
2022-10-22T16:55:19.510Z,90.75
2022-10-22T16:57:53.741Z,90.69
2022-10-22T17:00:21.395Z,90.25
2022-10-22T17:02:53.180Z,90.42
2022-10-22T17:05:20.962Z,90.50
2022-10-22T17:07:48.081Z,90.57
2022-10-22T17:10:16.274Z,90.69
2022-10-22T17:12:43.487Z,90.09
2022-10-22T17:15:10.903Z,90.44
2022-10-22T17:17:39.137Z,90.05
2022-10-22T17:20:07.659Z,90.09
2022-10-22T17:22:34.643Z,89.25
2022-10-22T17:25:12.850Z,89.79
2022-10-22T17:27:40.885Z,89.52
2022-10-22T17:30:09.267Z,90.23
2022-10-22T17:32:39.046Z,90.98
2022-10-22T17:35:07.244Z,91.52
2022-10-22T17:37:35.052Z,92.04
2022-10-22T17:40:04.263Z,92.63
2022-10-22T17:42:31.520Z,92.73
2022-10-22T17:44:58.354Z,93.33
2022-10-22T17:47:25.173Z,93.64
2022-10-22T17:49:52.103Z,94.64
2022-10-22T17:52:18.943Z,94.43
2022-10-22T17:54:48.856Z,94.36
2022-10-22T17:57:16.141Z,94.64
2022-10-22T17:59:43.086Z,94.15
2022-10-22T18:02:15.495Z,93.95
2022-10-22T18:04:42.479Z,93.94
2022-10-22T18:07:13.491Z,93.20
2022-10-22T18:09:43.025Z,92.95
2022-10-22T18:12:11.894Z,92.63
2022-10-22T18:14:38.758Z,92.48
2022-10-22T18:17:05.676Z,91.14
2022-10-22T18:19:33.046Z,91.49
2022-10-22T18:22:00.668Z,91.36
2022-10-22T18:24:27.524Z,90.82
2022-10-22T18:26:54.505Z,90.72
2022-10-22T18:29:21.424Z,89.87
2022-10-22T18:31:48.993Z,89.37
2022-10-22T18:34:17.766Z,88.97
2022-10-22T18:36:47.156Z,90.11
2022-10-22T18:39:15.627Z,90.34
2022-10-22T18:41:43.426Z,90.53
2022-10-22T18:44:13.420Z,90.86
2022-10-22T18:46:40.644Z,90.95
2022-10-22T18:49:08.160Z,89.21
2022-10-22T18:51:36.296Z,89.54
2022-10-22T18:54:18.187Z,87.69
2022-10-22T18:56:48.736Z,88.57
2022-10-22T18:59:22.012Z,84.47
2022-10-22T19:01:49.492Z,83.19
2022-10-22T19:04:16.333Z,82.69
2022-10-22T19:06:46.029Z,86.21
2022-10-22T19:09:16.576Z,85.05
2022-10-22T19:11:47.150Z,86.92
2022-10-22T19:14:15.123Z,87.46
2022-10-22T21:02:18.954Z,100.00
2022-10-22T21:04:46.523Z,100.00
2022-10-22T21:07:13.477Z,100.00
2022-10-22T21:09:40.264Z,100.00
2022-10-22T21:12:07.204Z,100.00
2022-10-22T21:14:34.304Z,99.69
2022-10-22T21:17:01.170Z,99.26
2022-10-22T21:19:28.219Z,98.17
2022-10-22T21:21:55.161Z,97.43
2022-10-22T21:24:24.814Z,96.14
2022-10-22T21:26:52.558Z,96.14
2022-10-22T21:29:20.469Z,95.22
2022-10-22T21:31:47.518Z,95.22
2022-10-22T21:34:14.599Z,94.36
2022-10-22T21:36:41.446Z,94.33
2022-10-22T21:39:08.808Z,94.52
2022-10-22T21:41:37.476Z,94.42
2022-10-22T21:44:04.624Z,94.03
2022-10-22T21:46:31.401Z,94.28
2022-10-22T21:49:03.857Z,94.21
2022-10-22T21:51:33.043Z,94.39
2022-10-22T21:54:00.330Z,94.24
2022-10-22T21:56:30.140Z,93.81
2022-10-22T21:58:56.960Z,93.30
2022-10-22T22:01:24.233Z,93.57
2022-10-22T22:03:52.628Z,94.11
2022-10-22T22:06:22.031Z,94.59
2022-10-22T22:08:51.606Z,95.12
2022-10-22T22:11:21.207Z,94.98
2022-10-22T22:13:51.004Z,94.94
2022-10-22T22:16:25.494Z,94.04
2022-10-22T22:18:55.376Z,92.81
2022-10-22T22:21:22.181Z,93.07
2022-10-22T22:23:50.236Z,94.09
2022-10-22T22:26:25.262Z,93.17
2022-10-22T22:28:56.288Z,93.31
2022-10-22T22:31:26.161Z,94.32
2022-10-22T22:34:16.837Z,93.50
2022-10-22T22:36:46.319Z,93.72
2022-10-22T22:39:16.033Z,93.69
2022-10-22T22:41:43.434Z,94.11
2022-10-22T22:44:10.555Z,94.19
2022-10-22T22:46:37.385Z,93.43
2022-10-22T22:49:04.432Z,94.06
2022-10-22T22:51:31.640Z,94.56
2022-10-22T22:54:00.261Z,95.04
2022-10-22T22:56:30.163Z,95.00
2022-10-22T22:58:57.645Z,94.53
2022-10-22T23:01:27.076Z,94.78
2022-10-22T23:03:56.990Z,94.66
2022-10-22T23:06:25.837Z,95.07
2022-10-22T23:08:53.127Z,95.95
2022-10-22T23:11:21.043Z,96.58
2022-10-22T23:13:51.159Z,96.82
2022-10-22T23:16:23.637Z,97.41
2022-10-22T23:18:52.075Z,96.88
2022-10-22T23:21:27.026Z,97.01
2022-10-22T23:23:57.267Z,97.17
2022-10-22T23:26:27.784Z,97.57
2022-10-22T23:28:54.641Z,98.15
2022-10-22T23:31:24.112Z,98.55
2022-10-22T23:33:50.895Z,99.10
2022-10-22T23:36:17.741Z,98.93
2022-10-22T23:38:44.655Z,100.00
2022-10-22T23:41:11.492Z,100.00
2022-10-22T23:43:38.485Z,100.00
2022-10-22T23:46:06.894Z,100.00
2022-10-22T23:48:33.960Z,100.00
2022-10-22T23:51:09.322Z,100.00
2022-10-22T23:53:36.139Z,100.00
2022-10-22T23:56:05.185Z,100.00
2022-10-22T23:58:32.464Z,100.00
